This is the latest recevied weather packets stored in our database for station/object F5IOR. If no packets are shown the sender has not sent any weather packets the latest 10 day(s).
| Time | Temp. | Humidity | Pressure | Rain* | Wind** | Luminosity | Snow |
|---|---|---|---|---|---|---|---|
| 1788600001 | 22.78° C | 58% | 996.7 hPa | 0 mm | - | - | - |
| 1788599041 | 22.22° C | 59% | 996.5 hPa | 0 mm | - | - | - |
| 1788598082 | 21.67° C | 60% | 996.3 hPa | 0 mm | - | - | - |
| 1788597122 | 20.56° C | 62% | 995.9 hPa | 0 mm | - | - | - |
| 1788596641 | 20.56° C | 62% | 995.9 hPa | 0 mm | - | - | - |
| 1788596162 | 20.56° C | 62% | 995.9 hPa | 0 mm | - | - | - |
| 1788595680 | 20° C | 64% | 995.7 hPa | 0 mm | - | - | - |
| 1788595201 | 20° C | 64% | 995.7 hPa | 0 mm | - | - | - |
| 1788594960 | 18.89° C | 66% | 995.7 hPa | 0 mm | - | - | - |
| 1788594721 | 18.89° C | 66% | 995.7 hPa | 0 mm | - | - | - |
| 1788594481 | 18.89° C | 66% | 995.7 hPa | 0 mm | - | - | - |
| 1788594241 | 18.89° C | 66% | 995.7 hPa | 0 mm | - | - | - |
| 1788594121 | 18.89° C | 66% | 995.7 hPa | 0 mm | - | - | - |
| 1788594001 | 18.89° C | 66% | 995.7 hPa | 0 mm | - | - | - |
| 1788593881 | 18.89° C | 66% | 995.7 hPa | 0 mm | - | - | - |
| 1788593760 | 18.89° C | 66% | 995.7 hPa | 0 mm | - | - | - |
| 1788593701 | 18.89° C | 66% | 995.7 hPa | 0 mm | - | - | - |
| 1788593640 | 18.89° C | 66% | 995.7 hPa | 0 mm | - | - | - |
| 1788593581 | 18.89° C | 66% | 995.7 hPa | 0 mm | - | - | - |
| 1788548766 | 26.67° C | 35% | 990.5 hPa | 0 mm | - | - | - |
| 1788546966 | 28.89° C | 30% | 990 hPa | 0 mm | - | - | - |
| 1788545166 | 30.56° C | 27% | 989.8 hPa | 0 mm | - | - | - |
| 1788543366 | 31.67° C | 26% | 989.9 hPa | 0 mm | - | - | - |
| 1788541566 | 32.22° C | 26% | 990 hPa | 0 mm | - | - | - |
| 1788539778 | 32.22° C | 29% | 989.8 hPa | 0 mm | - | - | - |
* Rain latest hour (hover to see other rain measurements)
** Current wind speed in m/s (hover to see current wind gust speed)